createdAt,value
2022-09-26T00:01:32.307Z,6.55
2022-09-26T00:04:03.446Z,6.44
2022-09-26T00:06:29.948Z,6.30
2022-09-26T00:08:56.948Z,6.25
2022-09-26T00:11:31.992Z,6.19
2022-09-26T00:14:02.664Z,6.18
2022-09-26T00:16:29.144Z,6.17
2022-09-26T00:18:58.937Z,6.13
2022-09-26T00:21:27.198Z,6.17
2022-09-26T00:23:54.427Z,6.18
2022-09-26T00:26:22.400Z,6.20
2022-09-26T00:28:49.672Z,6.20
2022-09-26T00:31:18.974Z,6.14
2022-09-26T00:33:45.820Z,6.14
2022-09-26T00:36:12.156Z,6.19
2022-09-26T00:38:39.317Z,6.15
2022-09-26T00:41:07.141Z,5.98
2022-09-26T00:43:41.733Z,5.98
2022-09-26T00:46:14.045Z,5.98
2022-09-26T00:48:43.299Z,5.92
2022-09-26T00:51:11.024Z,5.88
2022-09-26T00:53:48.940Z,5.81
2022-09-26T00:56:20.840Z,5.75
2022-09-26T00:59:04.037Z,5.72
2022-09-26T01:01:31.114Z,5.76
2022-09-26T01:03:59.041Z,5.78
2022-09-26T01:06:25.774Z,5.81
2022-09-26T01:09:00.784Z,5.80
2022-09-26T01:11:28.957Z,5.74
2022-09-26T01:13:57.018Z,5.71
2022-09-26T01:16:23.867Z,5.62
2022-09-26T01:18:51.373Z,5.56
2022-09-26T01:21:46.710Z,5.53
2022-09-26T01:24:56.705Z,5.34
2022-09-26T01:27:43.865Z,5.31
2022-09-26T01:30:14.171Z,5.25
2022-09-26T01:33:07.502Z,5.26
2022-09-26T01:35:52.304Z,5.34
2022-09-26T01:38:40.570Z,5.37
2022-09-26T01:41:19.069Z,5.44
2022-09-26T01:44:06.517Z,5.43
2022-09-26T01:46:56.814Z,5.35
2022-09-26T01:49:31.342Z,5.36
2022-09-26T01:52:09.824Z,5.33
2022-09-26T01:54:45.492Z,5.36
2022-09-26T01:57:20.984Z,5.28
2022-09-26T01:59:53.270Z,5.26
2022-09-26T02:02:27.322Z,5.35
2022-09-26T02:04:59.892Z,5.41
2022-09-26T02:07:55.113Z,5.53
2022-09-26T02:10:35.940Z,6.07
2022-09-26T02:13:11.445Z,6.39
2022-09-26T02:15:40.408Z,6.82
2022-09-26T02:18:24.196Z,6.97
2022-09-26T02:21:01.168Z,7.02
2022-09-26T02:23:27.641Z,7.08
2022-09-26T02:25:54.306Z,7.21
2022-09-26T02:28:22.108Z,7.30
2022-09-26T02:30:51.184Z,7.26
2022-09-26T02:33:18.085Z,7.28
2022-09-26T02:35:57.348Z,7.22
2022-09-26T02:38:27.246Z,7.12
2022-09-26T02:41:22.467Z,7.07
2022-09-26T02:44:04.069Z,7.08
2022-09-26T02:47:00.489Z,7.12
2022-09-26T02:49:32.762Z,7.11
2022-09-26T02:52:35.328Z,7.06
2022-09-26T02:55:37.948Z,6.97
2022-09-26T02:58:35.868Z,6.78
2022-09-26T03:01:11.199Z,6.71
2022-09-26T03:03:47.634Z,6.65
2022-09-26T03:06:17.861Z,6.54
2022-09-26T03:08:47.721Z,6.38
2022-09-26T03:11:18.467Z,6.26
2022-09-26T03:13:45.793Z,6.34
2022-09-26T03:16:14.229Z,6.27
2022-09-26T03:18:50.076Z,6.24
2022-09-26T03:21:17.424Z,6.29
2022-09-26T03:23:44.040Z,6.30
2022-09-26T03:26:18.369Z,6.32
2022-09-26T03:28:45.126Z,6.38
2022-09-26T03:31:11.564Z,6.35
2022-09-26T03:33:37.903Z,6.40
2022-09-26T03:36:09.445Z,6.34
2022-09-26T03:38:35.810Z,6.36
2022-09-26T03:41:02.629Z,6.37
2022-09-26T03:43:29.942Z,6.36
2022-09-26T03:45:56.429Z,6.43
2022-09-26T03:48:22.866Z,6.44
2022-09-26T03:50:49.287Z,6.39
2022-09-26T03:53:15.620Z,6.40
2022-09-26T03:55:42.044Z,6.44
2022-09-26T03:58:08.477Z,6.38
2022-09-26T04:00:35.002Z,6.35
2022-09-26T04:03:04.288Z,6.42
2022-09-26T04:05:30.969Z,6.44
2022-09-26T04:07:59.081Z,6.42
2022-09-26T04:10:25.441Z,6.30
2022-09-26T04:12:51.788Z,6.44
2022-09-26T04:15:18.178Z,6.38
2022-09-26T04:17:44.551Z,6.42
2022-09-26T04:20:10.914Z,6.40
2022-09-26T04:22:37.328Z,6.34
2022-09-26T04:25:03.904Z,6.41
2022-09-26T04:27:31.153Z,6.46
2022-09-26T04:29:57.514Z,6.46
2022-09-26T04:32:24.782Z,6.49
2022-09-26T04:34:51.214Z,6.43
2022-09-26T04:37:18.349Z,6.37
2022-09-26T04:39:44.709Z,6.32
2022-09-26T04:42:11.049Z,6.43
2022-09-26T04:44:37.414Z,6.41
2022-09-26T04:47:03.822Z,6.43
2022-09-26T04:49:30.991Z,6.48
2022-09-26T04:51:57.329Z,6.48
2022-09-26T04:54:24.008Z,6.50
2022-09-26T04:56:50.363Z,6.44
2022-09-26T04:59:16.745Z,6.43
2022-09-26T05:01:43.175Z,6.37
2022-09-26T05:04:10.025Z,6.40
2022-09-26T05:06:36.385Z,6.44
2022-09-26T05:09:04.154Z,6.29
2022-09-26T05:11:32.422Z,6.37
2022-09-26T05:13:58.787Z,6.40
2022-09-26T05:16:28.261Z,6.35
2022-09-26T05:18:55.900Z,6.38
2022-09-26T05:21:22.532Z,6.37
2022-09-26T05:24:07.184Z,6.38
2022-09-26T05:26:47.438Z,6.36
2022-09-26T05:29:14.171Z,6.36
2022-09-26T05:31:40.744Z,6.39
2022-09-26T05:34:13.136Z,6.40
2022-09-26T05:36:42.888Z,6.37
2022-09-26T05:39:27.764Z,6.36
2022-09-26T05:41:54.550Z,6.36
2022-09-26T05:44:21.118Z,6.24
2022-09-26T05:46:47.549Z,6.32
2022-09-26T05:49:14.815Z,6.32
2022-09-26T05:51:41.372Z,6.39
2022-09-26T05:54:07.714Z,6.36
2022-09-26T05:56:37.315Z,6.42
2022-09-26T05:59:04.386Z,6.50
2022-09-26T06:01:33.638Z,6.65
2022-09-26T06:04:00.123Z,6.77
2022-09-26T06:06:26.599Z,6.93
2022-09-26T06:08:52.956Z,7.13
2022-09-26T06:11:24.934Z,7.28
2022-09-26T06:13:51.306Z,7.48
2022-09-26T06:16:20.933Z,7.57
2022-09-26T06:18:50.567Z,7.73
2022-09-26T06:21:18.803Z,7.82
2022-09-26T06:23:45.702Z,7.96
2022-09-26T06:26:17.968Z,8.16
2022-09-26T06:28:44.423Z,8.23
2022-09-26T06:31:16.683Z,8.37
2022-09-26T06:33:43.214Z,8.41
2022-09-26T06:36:11.489Z,8.60
2022-09-26T06:38:38.711Z,8.67
2022-09-26T06:41:07.301Z,8.76
2022-09-26T06:43:33.917Z,8.78
2022-09-26T06:46:00.612Z,8.87
2022-09-26T06:48:27.327Z,9.00
2022-09-26T06:50:55.820Z,9.08
2022-09-26T06:53:22.668Z,9.15
2022-09-26T06:55:49.473Z,9.16
2022-09-26T06:58:15.949Z,9.29
2022-09-26T07:00:42.379Z,9.31
2022-09-26T07:03:08.850Z,9.42
2022-09-26T07:05:35.351Z,9.49
2022-09-26T07:08:02.603Z,9.71
2022-09-26T07:10:34.613Z,9.82
2022-09-26T07:13:03.944Z,9.92
2022-09-26T07:15:33.475Z,10.09
2022-09-26T07:18:02.642Z,10.28
2022-09-26T07:20:35.857Z,10.33
2022-09-26T07:23:03.454Z,10.43
2022-09-26T07:25:33.401Z,10.54
2022-09-26T07:28:01.018Z,10.78
2022-09-26T07:30:28.252Z,10.76
2022-09-26T07:33:03.607Z,10.93
2022-09-26T07:35:32.155Z,10.89
2022-09-26T07:37:59.321Z,10.81
2022-09-26T07:40:26.451Z,10.76
2022-09-26T07:43:09.520Z,10.70
2022-09-26T07:45:57.978Z,10.54
2022-09-26T07:48:42.764Z,10.58
2022-09-26T07:51:11.891Z,10.58
2022-09-26T07:53:41.196Z,10.49
2022-09-26T07:56:11.001Z,10.52
2022-09-26T07:58:42.237Z,10.57
2022-09-26T08:01:11.336Z,10.60
2022-09-26T08:03:50.145Z,10.53
2022-09-26T08:06:20.753Z,10.45
2022-09-26T08:08:48.157Z,10.42
2022-09-26T08:11:16.709Z,10.36
2022-09-26T08:13:44.447Z,10.28
2022-09-26T08:16:11.777Z,10.37
2022-09-26T08:18:38.248Z,10.39
2022-09-26T08:21:08.202Z,10.41
2022-09-26T08:23:34.816Z,10.43
2022-09-26T08:26:06.934Z,10.47
2022-09-26T08:28:34.677Z,10.61
2022-09-26T08:31:02.989Z,10.91
2022-09-26T08:33:29.691Z,10.90
2022-09-26T08:36:01.958Z,10.96
2022-09-26T08:38:28.315Z,10.92
2022-09-26T08:41:06.891Z,10.89
2022-09-26T08:43:45.321Z,10.80
2022-09-26T08:46:44.346Z,10.80
2022-09-26T08:49:36.778Z,10.83
2022-09-26T08:52:17.361Z,10.84
2022-09-26T08:54:46.214Z,10.77
2022-09-26T08:57:28.473Z,10.87
2022-09-26T08:59:55.255Z,10.85
2022-09-26T09:03:00.139Z,10.83
2022-09-26T09:05:34.067Z,10.95
2022-09-26T09:08:07.972Z,10.90
2022-09-26T09:11:16.412Z,11.06
2022-09-26T09:13:53.460Z,11.05
2022-09-26T09:16:32.120Z,11.11
2022-09-26T09:19:13.741Z,11.07
2022-09-26T09:21:46.148Z,11.18
2022-09-26T09:24:43.495Z,11.19
2022-09-26T09:31:03.822Z,11.02
2022-09-26T09:33:45.317Z,10.92
2022-09-26T09:36:15.625Z,10.92
2022-09-26T09:38:45.864Z,10.95
2022-09-26T09:41:34.745Z,10.96
2022-09-26T09:44:05.531Z,10.86
2022-09-26T09:46:36.501Z,10.90
2022-09-26T09:49:09.263Z,10.99
2022-09-26T09:51:39.418Z,10.92
2022-09-26T09:54:41.137Z,10.91
2022-09-26T09:57:19.364Z,10.94
2022-09-26T10:00:06.430Z,10.91
2022-09-26T10:02:47.553Z,10.92
2022-09-26T10:05:24.886Z,10.93
2022-09-26T10:07:59.038Z,10.81
2022-09-26T10:10:46.478Z,10.82
2022-09-26T10:13:12.989Z,10.78
2022-09-26T10:15:48.406Z,10.89
2022-09-26T10:18:24.662Z,10.85
2022-09-26T10:20:59.382Z,10.90
2022-09-26T10:23:45.401Z,10.88
2022-09-26T10:26:13.686Z,11.03
2022-09-26T10:28:48.329Z,11.06
2022-09-26T10:31:29.197Z,10.96
2022-09-26T10:33:59.269Z,10.88
2022-09-26T10:36:37.037Z,10.84
2022-09-26T10:39:36.261Z,10.78
2022-09-26T10:42:04.614Z,10.80
2022-09-26T10:44:35.071Z,10.79
2022-09-26T10:47:08.181Z,10.74
2022-09-26T10:49:40.041Z,10.64
2022-09-26T10:52:18.895Z,10.73
2022-09-26T10:55:28.341Z,10.70
2022-09-26T10:57:58.622Z,10.68
2022-09-26T11:00:33.784Z,10.79
2022-09-26T11:03:00.637Z,10.71
2022-09-26T11:05:45.599Z,10.69
2022-09-26T11:08:14.059Z,10.59
2022-09-26T11:10:41.952Z,10.72
2022-09-26T11:13:26.223Z,10.75
2022-09-26T11:16:03.002Z,10.83
2022-09-26T11:18:51.681Z,10.81
2022-09-26T11:21:34.236Z,10.81
2022-09-26T11:24:22.758Z,10.94
2022-09-26T11:27:19.255Z,10.98
2022-09-26T11:29:59.873Z,11.02
2022-09-26T11:32:30.060Z,10.96
2022-09-26T11:35:02.467Z,11.02
2022-09-26T11:37:40.740Z,10.99
2022-09-26T11:40:41.279Z,10.98
2022-09-26T11:43:28.931Z,10.87
2022-09-26T11:46:14.871Z,10.76
2022-09-26T11:49:00.864Z,10.72
2022-09-26T11:51:46.176Z,10.67
2022-09-26T11:54:18.525Z,10.61
2022-09-26T11:56:56.872Z,10.49
2022-09-26T12:00:01.614Z,10.47
2022-09-26T12:02:57.402Z,10.46
2022-09-26T12:05:48.958Z,10.42
2022-09-26T12:08:37.492Z,10.49
2022-09-26T12:11:34.842Z,10.50
2022-09-26T12:14:13.870Z,10.46
2022-09-26T12:17:16.006Z,10.59
2022-09-26T12:20:14.045Z,10.62
2022-09-26T12:22:48.925Z,10.53
2022-09-26T12:25:24.080Z,10.55
2022-09-26T12:28:12.772Z,10.54
2022-09-26T12:30:57.775Z,10.53
2022-09-26T12:33:45.419Z,10.55
2022-09-26T12:36:47.644Z,10.58
2022-09-26T12:39:41.838Z,10.70
2022-09-26T12:42:25.478Z,10.77
2022-09-26T12:44:57.823Z,10.67
2022-09-26T12:47:43.306Z,10.66
2022-09-26T12:50:42.129Z,10.83
2022-09-26T12:53:11.566Z,10.87
2022-09-26T12:55:58.375Z,10.94
2022-09-26T12:58:46.725Z,11.00
2022-09-26T13:01:33.637Z,11.12
2022-09-26T13:04:20.843Z,11.10
2022-09-26T13:07:18.236Z,11.13
2022-09-26T13:09:48.281Z,11.10
2022-09-26T13:12:21.136Z,11.18
2022-09-26T13:15:08.001Z,11.11
2022-09-26T13:17:45.996Z,11.14
2022-09-26T13:20:36.598Z,11.13
2022-09-26T13:23:10.940Z,11.02
2022-09-26T13:25:48.746Z,10.94
2022-09-26T13:28:38.237Z,10.98
2022-09-26T13:31:17.007Z,10.85
2022-09-26T13:34:16.898Z,10.76
2022-09-26T13:36:44.824Z,10.72
2022-09-26T13:39:23.260Z,10.86
2022-09-26T13:42:06.544Z,10.79
2022-09-26T13:45:12.571Z,10.76
2022-09-26T13:47:55.394Z,10.78
2022-09-26T13:50:43.657Z,10.84
2022-09-26T13:53:33.394Z,10.87
2022-09-26T13:56:33.939Z,11.03
2022-09-26T13:59:25.802Z,10.96
2022-09-26T14:02:16.818Z,11.06
2022-09-26T14:04:48.152Z,11.04
2022-09-26T14:07:40.933Z,11.18
2022-09-26T14:10:35.879Z,11.07
2022-09-26T14:13:15.230Z,11.25
2022-09-26T14:15:50.400Z,11.22
2022-09-26T14:18:52.155Z,11.13
2022-09-26T14:21:34.038Z,11.11
2022-09-26T14:24:25.522Z,11.07
2022-09-26T14:27:09.900Z,10.96
2022-09-26T14:29:39.220Z,11.03
2022-09-26T14:32:18.996Z,10.94
2022-09-26T14:34:48.586Z,11.00
2022-09-26T14:37:24.519Z,10.98
2022-09-26T14:40:14.093Z,11.06
2022-09-26T14:42:43.555Z,11.11
2022-09-26T14:45:31.075Z,11.09
2022-09-26T14:48:19.223Z,11.08
2022-09-26T14:51:06.238Z,11.02
2022-09-26T14:53:50.532Z,10.96
2022-09-26T14:56:37.186Z,11.14
2022-09-26T14:59:25.338Z,11.07
2022-09-26T15:01:55.052Z,11.07
2022-09-26T15:04:25.890Z,11.05
2022-09-26T15:07:06.024Z,11.01
2022-09-26T15:09:40.681Z,11.06
2022-09-26T15:12:30.458Z,10.91
2022-09-26T15:15:17.161Z,11.04
2022-09-26T15:17:52.922Z,11.03
2022-09-26T15:20:23.958Z,10.92
2022-09-26T15:22:52.663Z,10.91
2022-09-26T15:25:31.839Z,10.93
2022-09-26T15:27:59.199Z,11.00
2022-09-26T15:30:37.481Z,10.90
2022-09-26T15:33:04.242Z,10.91
2022-09-26T15:35:31.713Z,10.91
2022-09-26T15:38:11.538Z,10.90
2022-09-26T15:40:38.415Z,10.82
2022-09-26T15:43:12.265Z,10.88
2022-09-26T15:45:48.282Z,10.89
2022-09-26T15:48:20.883Z,10.87
2022-09-26T15:50:49.370Z,10.90
2022-09-26T15:53:34.086Z,10.84
2022-09-26T15:56:13.031Z,10.79
2022-09-26T15:58:39.294Z,10.79
2022-09-26T16:01:08.890Z,10.79
2022-09-26T16:03:43.134Z,10.74
2022-09-26T16:06:37.698Z,10.72
2022-09-26T16:09:08.814Z,10.73
2022-09-26T16:11:46.211Z,10.60
2022-09-26T16:14:33.363Z,10.50
2022-09-26T16:17:28.299Z,10.53
2022-09-26T16:19:57.709Z,10.42
2022-09-26T16:22:36.690Z,10.33
2022-09-26T16:25:15.206Z,10.20
2022-09-26T16:27:41.736Z,10.21
2022-09-26T16:30:28.672Z,10.05
2022-09-26T16:33:11.058Z,10.01
2022-09-26T16:35:44.717Z,9.93
2022-09-26T16:38:30.894Z,9.80
2022-09-26T16:41:08.646Z,9.81
2022-09-26T16:43:37.508Z,9.77
2022-09-26T16:46:13.428Z,9.75
2022-09-26T16:48:56.270Z,9.66
2022-09-26T16:51:26.033Z,9.64
2022-09-26T16:54:11.785Z,9.60
2022-09-26T16:56:41.342Z,9.53
2022-09-26T16:59:18.336Z,9.45
2022-09-26T17:01:56.389Z,9.34
2022-09-26T17:04:34.467Z,9.38
2022-09-26T17:07:10.027Z,9.33
2022-09-26T17:09:36.456Z,9.31
2022-09-26T17:12:06.353Z,9.29
2022-09-26T17:14:40.625Z,9.48
2022-09-26T17:17:12.910Z,9.43
2022-09-26T17:19:41.170Z,9.33
2022-09-26T17:22:19.150Z,9.30
2022-09-26T17:24:47.981Z,9.30
2022-09-26T17:27:27.048Z,9.32
2022-09-26T17:29:58.798Z,9.19
2022-09-26T17:32:33.744Z,9.22
2022-09-26T17:35:03.794Z,9.36
2022-09-26T17:37:30.316Z,9.24
2022-09-26T17:39:56.887Z,9.22
2022-09-26T17:42:23.783Z,9.25
2022-09-26T17:44:50.491Z,9.18
2022-09-26T17:47:18.901Z,9.17
2022-09-26T17:49:51.601Z,9.11
2022-09-26T17:52:28.854Z,9.08
2022-09-26T17:54:58.500Z,9.06
2022-09-26T17:57:29.895Z,8.95
2022-09-26T17:59:57.238Z,8.96
2022-09-26T18:02:34.348Z,8.94
2022-09-26T18:05:18.101Z,9.08
2022-09-26T18:07:45.881Z,9.00
2022-09-26T18:10:19.426Z,8.94
2022-09-26T18:12:48.505Z,8.95
2022-09-26T18:15:19.471Z,8.98
2022-09-26T18:17:45.873Z,8.89
2022-09-26T18:20:12.305Z,8.94
2022-09-26T18:22:38.718Z,8.81
2022-09-26T18:25:08.229Z,8.76
2022-09-26T18:27:40.424Z,8.81
2022-09-26T18:30:11.667Z,8.80
2022-09-26T18:32:41.592Z,8.86
2022-09-26T18:35:16.249Z,8.81
2022-09-26T18:37:43.492Z,8.72
2022-09-26T18:40:14.683Z,8.81
2022-09-26T18:42:44.299Z,8.80
2022-09-26T18:45:15.076Z,8.74
2022-09-26T18:47:43.228Z,8.79
2022-09-26T18:50:24.331Z,8.72
2022-09-26T18:52:51.223Z,8.74
2022-09-26T18:55:42.482Z,8.75
2022-09-26T18:58:29.383Z,8.69
2022-09-26T19:00:57.719Z,8.75
2022-09-26T19:03:27.481Z,8.69
2022-09-26T19:06:10.449Z,8.60
2022-09-26T19:08:39.868Z,8.65
2022-09-26T19:11:13.136Z,8.65
2022-09-26T19:13:41.066Z,8.66
2022-09-26T19:16:08.329Z,8.65
2022-09-26T19:18:38.464Z,8.65
2022-09-26T19:21:08.057Z,8.63
2022-09-26T19:23:36.421Z,8.60
2022-09-26T19:26:05.640Z,8.56
2022-09-26T19:28:35.339Z,8.64
2022-09-26T19:31:03.470Z,8.64
2022-09-26T19:33:29.981Z,8.63
2022-09-26T19:35:56.494Z,8.65
2022-09-26T19:38:25.557Z,8.56
2022-09-26T19:40:53.543Z,8.52
2022-09-26T19:43:21.198Z,8.58
2022-09-26T19:45:52.872Z,8.64
2022-09-26T19:48:23.430Z,8.65
2022-09-26T19:50:52.341Z,8.70
2022-09-26T19:53:21.033Z,8.65
2022-09-26T19:55:50.151Z,8.68
2022-09-26T19:58:18.422Z,8.60
2022-09-26T20:00:49.325Z,8.69
2022-09-26T20:03:18.302Z,8.73
2022-09-26T20:05:46.450Z,8.68
2022-09-26T20:08:16.608Z,8.68
2022-09-26T20:10:43.290Z,8.67
2022-09-26T20:13:09.630Z,8.66
2022-09-26T20:15:36.099Z,8.66
2022-09-26T20:18:03.008Z,8.63
2022-09-26T20:20:31.558Z,8.68
2022-09-26T20:22:58.519Z,8.71
2022-09-26T20:25:27.685Z,8.75
2022-09-26T20:27:54.634Z,8.74
2022-09-26T20:30:40.233Z,8.69
2022-09-26T20:33:07.058Z,8.79
2022-09-26T20:35:36.872Z,8.75
2022-09-26T20:38:07.549Z,8.69
2022-09-26T20:40:34.839Z,8.76
2022-09-26T20:43:05.856Z,8.72
2022-09-26T20:45:38.345Z,8.69
2022-09-26T20:48:16.525Z,8.80
2022-09-26T20:50:42.901Z,8.73
2022-09-26T20:53:20.717Z,8.76
2022-09-26T20:55:47.889Z,8.79
2022-09-26T20:58:14.685Z,8.82
2022-09-26T21:00:42.400Z,8.80
2022-09-26T21:03:12.091Z,8.76
2022-09-26T21:05:38.959Z,8.80
2022-09-26T21:08:13.399Z,8.79
2022-09-26T21:10:40.020Z,8.72
2022-09-26T21:13:06.381Z,8.90
2022-09-26T21:15:33.435Z,8.79
2022-09-26T21:18:00.976Z,8.74
2022-09-26T21:20:32.375Z,8.86
2022-09-26T21:23:01.672Z,8.86
2022-09-26T21:25:31.199Z,8.81
2022-09-26T21:28:01.401Z,8.85
2022-09-26T21:30:28.961Z,8.82
2022-09-26T21:32:57.757Z,8.83
2022-09-26T21:35:28.781Z,8.86
2022-09-26T21:37:56.896Z,8.84
2022-09-26T21:40:26.998Z,8.76
2022-09-26T21:43:00.175Z,8.79
2022-09-26T21:45:27.742Z,8.88
2022-09-26T21:47:56.833Z,8.85
2022-09-26T21:50:27.557Z,8.91
2022-09-26T21:52:59.479Z,8.84
2022-09-26T21:55:33.503Z,8.78
2022-09-26T21:58:05.408Z,8.75
2022-09-26T22:00:31.757Z,8.86
2022-09-26T22:02:59.551Z,8.90
2022-09-26T22:05:26.012Z,8.89
2022-09-26T22:07:52.473Z,8.88
2022-09-26T22:10:19.210Z,8.88
2022-09-26T22:12:45.568Z,8.88
2022-09-26T22:15:11.910Z,8.85
2022-09-26T22:17:38.389Z,8.82
2022-09-26T22:20:05.437Z,8.83
2022-09-26T22:22:31.838Z,8.83
2022-09-26T22:25:02.517Z,8.83
2022-09-26T22:27:28.993Z,8.83
2022-09-26T22:29:55.360Z,8.97
2022-09-26T22:32:22.088Z,8.86
2022-09-26T22:34:49.118Z,8.94
2022-09-26T22:37:15.984Z,8.87
2022-09-26T22:39:42.348Z,8.95
2022-09-26T22:42:08.726Z,8.92
2022-09-26T22:44:35.743Z,8.94
2022-09-26T22:47:02.103Z,8.96
2022-09-26T22:49:28.652Z,8.94
2022-09-26T22:51:55.041Z,8.90
2022-09-26T22:54:21.543Z,8.97
2022-09-26T22:56:47.996Z,8.91
2022-09-26T22:59:15.432Z,8.91
2022-09-26T23:01:41.910Z,8.78
2022-09-26T23:04:08.312Z,8.82
2022-09-26T23:06:34.671Z,8.76
2022-09-26T23:09:01.035Z,8.70
2022-09-26T23:11:27.930Z,8.86
2022-09-26T23:13:54.393Z,8.82
2022-09-26T23:16:23.643Z,8.84
2022-09-26T23:18:51.401Z,8.82
2022-09-26T23:21:20.578Z,8.79
2022-09-26T23:23:52.750Z,8.75
2022-09-26T23:26:23.652Z,8.87
2022-09-26T23:28:51.617Z,8.88
2022-09-26T23:31:18.513Z,8.78
2022-09-26T23:33:45.239Z,8.72
2022-09-26T23:36:12.023Z,8.80
2022-09-26T23:38:39.564Z,8.83
2022-09-26T23:41:07.345Z,8.71
2022-09-26T23:43:33.958Z,8.75
2022-09-26T23:46:00.488Z,8.80
2022-09-26T23:48:27.016Z,8.70
2022-09-26T23:50:53.660Z,8.77
2022-09-26T23:53:22.109Z,8.75
2022-09-26T23:55:48.630Z,8.65
2022-09-26T23:58:15.076Z,8.73
